createdAt,value
2022-10-30T00:13:43.942Z,8.93
2022-10-30T00:28:52.198Z,8.80
2022-10-30T00:43:56.563Z,8.50
2022-10-30T00:59:06.249Z,7.07
2022-10-30T01:14:13.114Z,8.40
2022-10-30T01:29:32.145Z,9.77
2022-10-30T01:44:36.936Z,9.43
2022-10-30T01:59:47.098Z,7.40
2022-10-30T02:14:55.654Z,8.20
2022-10-30T02:30:00.745Z,7.07
2022-10-30T02:45:07.715Z,6.57
2022-10-30T03:00:13.583Z,6.33
2022-10-30T03:15:18.201Z,5.80
2022-10-30T03:30:22.540Z,7.80
2022-10-30T03:45:27.042Z,6.43
2022-10-30T04:00:31.756Z,8.10
2022-10-30T04:15:38.071Z,6.97
2022-10-30T04:30:42.863Z,7.10
2022-10-30T04:45:47.716Z,7.33
2022-10-30T05:00:52.082Z,7.33
2022-10-30T05:15:57.301Z,7.43
2022-10-30T05:31:01.982Z,7.90
2022-10-30T05:46:32.280Z,7.50
2022-10-30T06:01:47.220Z,8.00
2022-10-30T06:16:51.775Z,7.07
2022-10-30T06:32:06.907Z,7.20
2022-10-30T06:47:12.074Z,6.60
2022-10-30T07:02:17.312Z,7.23
2022-10-30T07:17:25.945Z,7.10
2022-10-30T07:32:35.971Z,6.70
2022-10-30T07:48:08.834Z,7.03
2022-10-30T08:03:21.914Z,13.13
2022-10-30T08:18:52.740Z,6.20
2022-10-30T08:34:01.278Z,5.47
2022-10-30T08:49:44.145Z,6.43
2022-10-30T09:04:49.875Z,7.23
2022-10-30T09:20:14.315Z,6.97
2022-10-30T09:35:19.301Z,6.33
2022-10-30T09:50:29.395Z,6.70
2022-10-30T10:05:45.611Z,5.80
2022-10-30T10:21:16.929Z,7.33
2022-10-30T10:36:31.935Z,7.03
2022-10-30T10:51:40.121Z,5.97
2022-10-30T11:06:50.181Z,6.97
2022-10-30T11:21:56.351Z,5.67
2022-10-30T11:37:00.851Z,6.60
2022-10-30T11:52:06.972Z,7.57
2022-10-30T12:07:21.456Z,6.67
2022-10-30T12:22:34.659Z,5.60
2022-10-30T12:37:43.835Z,4.90
2022-10-30T12:52:55.653Z,5.93
2022-10-30T13:08:07.889Z,3.20
2022-10-30T13:23:16.633Z,3.77
2022-10-30T13:38:39.124Z,2.83
2022-10-30T13:53:46.345Z,2.80
2022-10-30T14:08:58.829Z,4.37
2022-10-30T14:24:17.858Z,2.77
2022-10-30T14:39:31.851Z,3.00
2022-10-30T14:54:45.560Z,1.20
2022-10-30T15:10:03.660Z,2.00
2022-10-30T15:25:17.503Z,2.43
2022-10-30T15:55:30.111Z,2.00
2022-10-30T16:10:36.861Z,1.70
2022-10-30T16:25:47.032Z,1.70
2022-10-30T16:40:52.789Z,1.90
2022-10-30T16:55:59.191Z,2.20
2022-10-30T17:11:05.471Z,1.70
2022-10-30T17:26:14.306Z,2.63
2022-10-30T17:41:18.716Z,1.20
2022-10-30T17:56:25.938Z,2.37
2022-10-30T18:11:30.317Z,5.77
2022-10-30T18:26:40.042Z,2.53
2022-10-30T18:41:46.403Z,2.67
2022-10-30T18:56:50.793Z,2.57
2022-10-30T19:11:55.155Z,6.53
2022-10-30T19:26:59.631Z,1.73
2022-10-30T19:42:04.101Z,2.47
2022-10-30T19:57:13.145Z,2.60
2022-10-30T20:12:17.517Z,3.30
2022-10-30T20:27:21.893Z,3.30
2022-10-30T20:42:26.333Z,2.53
2022-10-30T20:57:30.754Z,3.30
2022-10-30T21:12:35.186Z,2.43
2022-10-30T21:27:39.707Z,2.67
2022-10-30T21:42:44.188Z,2.10
2022-10-30T21:57:48.568Z,2.57
2022-10-30T22:12:52.942Z,3.10
2022-10-30T22:27:57.505Z,2.63
2022-10-30T22:43:02.525Z,2.07
2022-10-30T22:58:07.027Z,2.90
2022-10-30T23:13:11.461Z,3.60
2022-10-30T23:43:21.511Z,4.07
2022-10-30T23:58:26.068Z,3.30
